sensor_id;sensor_type;location;lat;lon;timestamp;temperature;humidity
51567;DHT22;37657;53.182;5.638;2023-06-14T00:00:58;16.40;99.90
51567;DHT22;37657;53.182;5.638;2023-06-14T00:03:24;16.40;99.90
51567;DHT22;37657;53.182;5.638;2023-06-14T00:05:50;16.30;99.90
51567;DHT22;37657;53.182;5.638;2023-06-14T00:08:15;16.20;99.90
51567;DHT22;37657;53.182;5.638;2023-06-14T00:10:41;16.20;99.90
51567;DHT22;37657;53.182;5.638;2023-06-14T00:13:08;16.10;99.90
51567;DHT22;37657;53.182;5.638;2023-06-14T00:15:34;16.10;99.90
51567;DHT22;37657;53.182;5.638;2023-06-14T00:18:00;16.00;99.90
51567;DHT22;37657;53.182;5.638;2023-06-14T00:20:27;15.90;99.90
51567;DHT22;37657;53.182;5.638;2023-06-14T00:22:53;15.90;99.90
51567;DHT22;37657;53.182;5.638;2023-06-14T00:25:22;15.90;99.90
51567;DHT22;37657;53.182;5.638;2023-06-14T00:27:47;15.80;99.90
51567;DHT22;37657;53.182;5.638;2023-06-14T00:30:13;15.90;99.90
51567;DHT22;37657;53.182;5.638;2023-06-14T00:32:39;15.80;99.90
51567;DHT22;37657;53.182;5.638;2023-06-14T00:35:04;15.80;99.90
51567;DHT22;37657;53.182;5.638;2023-06-14T00:37:30;15.70;99.90
51567;DHT22;37657;53.182;5.638;2023-06-14T00:39:55;15.80;99.90
51567;DHT22;37657;53.182;5.638;2023-06-14T00:42:25;15.70;99.90
51567;DHT22;37657;53.182;5.638;2023-06-14T00:44:51;15.70;99.90
51567;DHT22;37657;53.182;5.638;2023-06-14T00:47:17;15.70;99.90
51567;DHT22;37657;53.182;5.638;2023-06-14T00:49:45;15.60;99.90
51567;DHT22;37657;53.182;5.638;2023-06-14T00:52:11;15.60;99.90
51567;DHT22;37657;53.182;5.638;2023-06-14T00:54:38;15.60;99.90
51567;DHT22;37657;53.182;5.638;2023-06-14T00:57:04;15.50;99.90
51567;DHT22;37657;53.182;5.638;2023-06-14T00:59:30;15.40;99.90
51567;DHT22;37657;53.182;5.638;2023-06-14T01:01:55;15.20;99.90
51567;DHT22;37657;53.182;5.638;2023-06-14T01:04:21;15.30;99.90
51567;DHT22;37657;53.182;5.638;2023-06-14T01:14:21;15.20;99.90
51567;DHT22;37657;53.182;5.638;2023-06-14T01:16:47;15.20;99.90
51567;DHT22;37657;53.182;5.638;2023-06-14T01:19:18;15.10;99.90
51567;DHT22;37657;53.182;5.638;2023-06-14T01:21:46;15.10;99.90
51567;DHT22;37657;53.182;5.638;2023-06-14T01:24:16;15.00;99.90
51567;DHT22;37657;53.182;5.638;2023-06-14T01:26:45;15.10;99.90
51567;DHT22;37657;53.182;5.638;2023-06-14T01:29:13;15.00;99.90
51567;DHT22;37657;53.182;5.638;2023-06-14T01:31:43;15.00;99.90
51567;DHT22;37657;53.182;5.638;2023-06-14T01:34:08;15.00;99.90
51567;DHT22;37657;53.182;5.638;2023-06-14T01:36:36;15.00;99.90
51567;DHT22;37657;53.182;5.638;2023-06-14T01:39:04;14.90;99.90
51567;DHT22;37657;53.182;5.638;2023-06-14T01:41:31;14.90;99.90
51567;DHT22;37657;53.182;5.638;2023-06-14T01:43:58;14.80;99.90
51567;DHT22;37657;53.182;5.638;2023-06-14T01:46:24;14.80;99.90
51567;DHT22;37657;53.182;5.638;2023-06-14T01:48:50;14.80;99.90
51567;DHT22;37657;53.182;5.638;2023-06-14T01:51:16;14.80;99.90
51567;DHT22;37657;53.182;5.638;2023-06-14T01:53:42;14.80;99.90
51567;DHT22;37657;53.182;5.638;2023-06-14T01:56:07;14.80;99.90
51567;DHT22;37657;53.182;5.638;2023-06-14T01:58:33;14.80;99.90
51567;DHT22;37657;53.182;5.638;2023-06-14T02:00:58;14.80;99.90
51567;DHT22;37657;53.182;5.638;2023-06-14T02:03:26;14.70;99.90
51567;DHT22;37657;53.182;5.638;2023-06-14T02:05:52;14.70;99.90
51567;DHT22;37657;53.182;5.638;2023-06-14T02:08:17;14.70;99.90
51567;DHT22;37657;53.182;5.638;2023-06-14T02:10:43;14.70;99.90
51567;DHT22;37657;53.182;5.638;2023-06-14T02:13:09;14.70;99.90
51567;DHT22;37657;53.182;5.638;2023-06-14T02:15:34;14.80;99.90
51567;DHT22;37657;53.182;5.638;2023-06-14T02:18:04;14.60;99.90
51567;DHT22;37657;53.182;5.638;2023-06-14T02:20:30;14.60;99.90
51567;DHT22;37657;53.182;5.638;2023-06-14T02:22:57;14.60;99.90
51567;DHT22;37657;53.182;5.638;2023-06-14T02:25:22;14.60;99.90
51567;DHT22;37657;53.182;5.638;2023-06-14T02:27:48;14.60;99.90
51567;DHT22;37657;53.182;5.638;2023-06-14T02:30:13;14.50;99.90
51567;DHT22;37657;53.182;5.638;2023-06-14T02:32:40;14.50;99.90
51567;DHT22;37657;53.182;5.638;2023-06-14T02:35:08;14.50;99.90
51567;DHT22;37657;53.182;5.638;2023-06-14T02:37:34;14.50;99.90
51567;DHT22;37657;53.182;5.638;2023-06-14T02:39:59;14.50;99.90
51567;DHT22;37657;53.182;5.638;2023-06-14T02:42:25;14.50;99.90
51567;DHT22;37657;53.182;5.638;2023-06-14T02:44:50;14.50;99.90
51567;DHT22;37657;53.182;5.638;2023-06-14T02:47:18;14.50;99.90
51567;DHT22;37657;53.182;5.638;2023-06-14T02:49:44;14.60;99.90
51567;DHT22;37657;53.182;5.638;2023-06-14T02:52:12;14.60;99.90
51567;DHT22;37657;53.182;5.638;2023-06-14T02:54:37;14.50;99.90
51567;DHT22;37657;53.182;5.638;2023-06-14T02:57:03;14.60;99.90
51567;DHT22;37657;53.182;5.638;2023-06-14T02:59:29;14.60;99.90
51567;DHT22;37657;53.182;5.638;2023-06-14T03:01:55;14.60;99.90
51567;DHT22;37657;53.182;5.638;2023-06-14T03:04:20;14.60;99.90
51567;DHT22;37657;53.182;5.638;2023-06-14T03:06:46;14.60;99.90
51567;DHT22;37657;53.182;5.638;2023-06-14T03:09:16;14.50;99.90
51567;DHT22;37657;53.182;5.638;2023-06-14T03:11:41;14.50;99.90
51567;DHT22;37657;53.182;5.638;2023-06-14T03:14:07;14.50;99.90
51567;DHT22;37657;53.182;5.638;2023-06-14T03:16:33;14.50;99.90
51567;DHT22;37657;53.182;5.638;2023-06-14T03:18:59;14.40;99.90
51567;DHT22;37657;53.182;5.638;2023-06-14T03:21:25;14.40;99.90
51567;DHT22;37657;53.182;5.638;2023-06-14T03:23:51;14.40;99.90
51567;DHT22;37657;53.182;5.638;2023-06-14T03:26:18;14.40;99.90
51567;DHT22;37657;53.182;5.638;2023-06-14T03:28:45;14.40;99.90
51567;DHT22;37657;53.182;5.638;2023-06-14T03:31:11;14.40;99.90
51567;DHT22;37657;53.182;5.638;2023-06-14T03:33:37;14.40;99.90
51567;DHT22;37657;53.182;5.638;2023-06-14T03:36:03;14.40;99.90
51567;DHT22;37657;53.182;5.638;2023-06-14T03:38:29;14.40;99.90
51567;DHT22;37657;53.182;5.638;2023-06-14T03:40:54;14.30;99.90
51567;DHT22;37657;53.182;5.638;2023-06-14T03:43:20;14.40;99.90
51567;DHT22;37657;53.182;5.638;2023-06-14T03:45:46;14.40;99.90
51567;DHT22;37657;53.182;5.638;2023-06-14T03:48:11;14.40;99.90
51567;DHT22;37657;53.182;5.638;2023-06-14T03:50:37;14.40;99.90
51567;DHT22;37657;53.182;5.638;2023-06-14T03:53:06;14.40;99.90
51567;DHT22;37657;53.182;5.638;2023-06-14T03:55:32;14.40;99.90
51567;DHT22;37657;53.182;5.638;2023-06-14T03:57:59;14.40;99.90
51567;DHT22;37657;53.182;5.638;2023-06-14T04:00:25;14.40;99.90
51567;DHT22;37657;53.182;5.638;2023-06-14T04:02:51;14.40;99.90
51567;DHT22;37657;53.182;5.638;2023-06-14T04:05:17;14.40;99.90
51567;DHT22;37657;53.182;5.638;2023-06-14T04:07:45;14.50;99.90
51567;DHT22;37657;53.182;5.638;2023-06-14T04:10:14;14.50;99.90
51567;DHT22;37657;53.182;5.638;2023-06-14T04:12:41;14.50;99.90
51567;DHT22;37657;53.182;5.638;2023-06-14T04:15:08;14.50;99.90
51567;DHT22;37657;53.182;5.638;2023-06-14T04:17:34;14.50;99.90
51567;DHT22;37657;53.182;5.638;2023-06-14T04:20:01;14.60;99.90
51567;DHT22;37657;53.182;5.638;2023-06-14T04:22:28;14.60;99.90
51567;DHT22;37657;53.182;5.638;2023-06-14T04:24:55;14.60;99.90
51567;DHT22;37657;53.182;5.638;2023-06-14T04:27:23;14.70;99.90
51567;DHT22;37657;53.182;5.638;2023-06-14T04:29:54;14.80;99.90
51567;DHT22;37657;53.182;5.638;2023-06-14T04:32:29;14.90;99.90
51567;DHT22;37657;53.182;5.638;2023-06-14T04:35:07;14.90;99.90
51567;DHT22;37657;53.182;5.638;2023-06-14T04:37:32;15.00;99.90
51567;DHT22;37657;53.182;5.638;2023-06-14T04:39:58;15.10;99.90
51567;DHT22;37657;53.182;5.638;2023-06-14T04:42:24;15.20;99.90
51567;DHT22;37657;53.182;5.638;2023-06-14T04:44:51;15.30;99.90
51567;DHT22;37657;53.182;5.638;2023-06-14T04:47:20;15.30;99.90
51567;DHT22;37657;53.182;5.638;2023-06-14T04:49:46;15.40;99.90
51567;DHT22;37657;53.182;5.638;2023-06-14T04:52:13;15.50;99.90
51567;DHT22;37657;53.182;5.638;2023-06-14T04:54:42;15.50;99.90
51567;DHT22;37657;53.182;5.638;2023-06-14T04:57:11;15.60;99.90
51567;DHT22;37657;53.182;5.638;2023-06-14T04:59:43;15.60;99.90
51567;DHT22;37657;53.182;5.638;2023-06-14T05:02:10;15.70;99.90
51567;DHT22;37657;53.182;5.638;2023-06-14T05:04:35;15.80;99.90
51567;DHT22;37657;53.182;5.638;2023-06-14T05:07:06;15.90;99.90
51567;DHT22;37657;53.182;5.638;2023-06-14T05:09:32;16.00;99.90
51567;DHT22;37657;53.182;5.638;2023-06-14T05:11:58;16.10;99.90
51567;DHT22;37657;53.182;5.638;2023-06-14T05:14:25;16.30;99.90
51567;DHT22;37657;53.182;5.638;2023-06-14T05:16:52;16.40;99.90
51567;DHT22;37657;53.182;5.638;2023-06-14T05:19:18;16.50;99.90
51567;DHT22;37657;53.182;5.638;2023-06-14T05:21:46;16.70;99.90
51567;DHT22;37657;53.182;5.638;2023-06-14T05:24:13;16.80;99.90
51567;DHT22;37657;53.182;5.638;2023-06-14T05:26:38;16.90;99.90
51567;DHT22;37657;53.182;5.638;2023-06-14T05:29:04;17.00;99.90
51567;DHT22;37657;53.182;5.638;2023-06-14T05:31:30;17.10;99.90
51567;DHT22;37657;53.182;5.638;2023-06-14T05:33:56;17.20;99.90
51567;DHT22;37657;53.182;5.638;2023-06-14T05:36:21;17.40;99.90
51567;DHT22;37657;53.182;5.638;2023-06-14T05:38:47;17.30;99.90
51567;DHT22;37657;53.182;5.638;2023-06-14T05:41:13;17.40;99.90
51567;DHT22;37657;53.182;5.638;2023-06-14T05:43:39;17.50;99.90
51567;DHT22;37657;53.182;5.638;2023-06-14T05:46:04;17.60;99.90
51567;DHT22;37657;53.182;5.638;2023-06-14T05:48:33;17.60;99.90
51567;DHT22;37657;53.182;5.638;2023-06-14T05:50:59;17.70;99.90
51567;DHT22;37657;53.182;5.638;2023-06-14T05:53:24;17.70;99.90
51567;DHT22;37657;53.182;5.638;2023-06-14T05:55:50;17.90;99.90
51567;DHT22;37657;53.182;5.638;2023-06-14T05:58:20;17.90;99.90
51567;DHT22;37657;53.182;5.638;2023-06-14T06:00:46;18.00;99.90
51567;DHT22;37657;53.182;5.638;2023-06-14T06:03:12;18.00;99.90
51567;DHT22;37657;53.182;5.638;2023-06-14T06:05:38;17.90;99.90
51567;DHT22;37657;53.182;5.638;2023-06-14T06:08:04;18.10;99.90
51567;DHT22;37657;53.182;5.638;2023-06-14T06:10:29;18.20;99.90
51567;DHT22;37657;53.182;5.638;2023-06-14T06:12:55;18.20;99.90
51567;DHT22;37657;53.182;5.638;2023-06-14T06:15:21;18.20;99.90
51567;DHT22;37657;53.182;5.638;2023-06-14T06:17:46;18.10;99.90
51567;DHT22;37657;53.182;5.638;2023-06-14T06:20:12;18.30;99.90
51567;DHT22;37657;53.182;5.638;2023-06-14T06:22:38;18.40;99.90
51567;DHT22;37657;53.182;5.638;2023-06-14T06:25:04;18.30;99.90
51567;DHT22;37657;53.182;5.638;2023-06-14T06:27:30;18.50;99.90
51567;DHT22;37657;53.182;5.638;2023-06-14T06:29:55;18.50;99.90
51567;DHT22;37657;53.182;5.638;2023-06-14T06:32:21;18.50;99.90
51567;DHT22;37657;53.182;5.638;2023-06-14T06:34:47;18.60;99.90
51567;DHT22;37657;53.182;5.638;2023-06-14T06:37:13;18.60;99.90
51567;DHT22;37657;53.182;5.638;2023-06-14T06:39:38;18.70;99.90
51567;DHT22;37657;53.182;5.638;2023-06-14T06:42:04;18.70;99.90
51567;DHT22;37657;53.182;5.638;2023-06-14T06:44:30;18.70;99.90
51567;DHT22;37657;53.182;5.638;2023-06-14T06:46:57;18.80;99.90
51567;DHT22;37657;53.182;5.638;2023-06-14T06:49:23;18.90;99.90
51567;DHT22;37657;53.182;5.638;2023-06-14T06:52:05;18.80;99.90
51567;DHT22;37657;53.182;5.638;2023-06-14T06:54:31;18.90;99.90
51567;DHT22;37657;53.182;5.638;2023-06-14T06:56:57;19.00;99.90
51567;DHT22;37657;53.182;5.638;2023-06-14T06:59:23;19.00;99.90
51567;DHT22;37657;53.182;5.638;2023-06-14T07:01:48;19.20;99.90
51567;DHT22;37657;53.182;5.638;2023-06-14T07:04:14;19.20;99.90
51567;DHT22;37657;53.182;5.638;2023-06-14T07:06:40;19.30;99.90
51567;DHT22;37657;53.182;5.638;2023-06-14T07:09:05;19.30;99.90
51567;DHT22;37657;53.182;5.638;2023-06-14T07:11:33;19.30;99.90
51567;DHT22;37657;53.182;5.638;2023-06-14T07:13:59;19.50;99.90
51567;DHT22;37657;53.182;5.638;2023-06-14T07:16:25;19.50;99.90
51567;DHT22;37657;53.182;5.638;2023-06-14T07:18:51;19.70;99.90
51567;DHT22;37657;53.182;5.638;2023-06-14T07:21:17;19.70;99.90
51567;DHT22;37657;53.182;5.638;2023-06-14T07:23:43;19.70;99.90
51567;DHT22;37657;53.182;5.638;2023-06-14T07:26:08;19.80;99.90
51567;DHT22;37657;53.182;5.638;2023-06-14T07:28:34;19.90;99.90
51567;DHT22;37657;53.182;5.638;2023-06-14T07:31:00;19.90;99.90
51567;DHT22;37657;53.182;5.638;2023-06-14T07:33:25;20.00;99.90
51567;DHT22;37657;53.182;5.638;2023-06-14T07:35:51;20.10;99.90
51567;DHT22;37657;53.182;5.638;2023-06-14T07:38:18;20.10;99.90
51567;DHT22;37657;53.182;5.638;2023-06-14T07:40:43;20.20;99.90
51567;DHT22;37657;53.182;5.638;2023-06-14T07:43:09;20.30;99.90
51567;DHT22;37657;53.182;5.638;2023-06-14T07:45:34;20.30;99.90
51567;DHT22;37657;53.182;5.638;2023-06-14T07:48:00;20.40;99.90
51567;DHT22;37657;53.182;5.638;2023-06-14T07:50:25;20.40;99.90
51567;DHT22;37657;53.182;5.638;2023-06-14T07:52:51;20.50;99.90
51567;DHT22;37657;53.182;5.638;2023-06-14T07:55:16;20.60;99.90
51567;DHT22;37657;53.182;5.638;2023-06-14T07:57:42;20.60;99.90
51567;DHT22;37657;53.182;5.638;2023-06-14T08:00:09;20.70;99.90
51567;DHT22;37657;53.182;5.638;2023-06-14T08:02:43;20.70;99.90
51567;DHT22;37657;53.182;5.638;2023-06-14T08:05:10;20.90;99.90
51567;DHT22;37657;53.182;5.638;2023-06-14T08:07:40;20.90;99.90
51567;DHT22;37657;53.182;5.638;2023-06-14T08:10:06;20.90;99.90
51567;DHT22;37657;53.182;5.638;2023-06-14T08:12:33;21.00;99.90
51567;DHT22;37657;53.182;5.638;2023-06-14T08:14:59;20.90;99.90
51567;DHT22;37657;53.182;5.638;2023-06-14T08:17:24;21.20;99.90
51567;DHT22;37657;53.182;5.638;2023-06-14T08:19:50;21.30;99.90
51567;DHT22;37657;53.182;5.638;2023-06-14T08:22:16;21.40;99.90
51567;DHT22;37657;53.182;5.638;2023-06-14T08:24:43;21.40;99.90
51567;DHT22;37657;53.182;5.638;2023-06-14T08:27:10;21.50;99.90
51567;DHT22;37657;53.182;5.638;2023-06-14T08:29:36;21.60;99.90
51567;DHT22;37657;53.182;5.638;2023-06-14T08:32:04;21.80;99.90
51567;DHT22;37657;53.182;5.638;2023-06-14T08:34:29;21.80;99.90
51567;DHT22;37657;53.182;5.638;2023-06-14T08:36:55;21.80;99.90
51567;DHT22;37657;53.182;5.638;2023-06-14T08:39:20;21.90;99.90
51567;DHT22;37657;53.182;5.638;2023-06-14T08:41:47;22.00;99.90
51567;DHT22;37657;53.182;5.638;2023-06-14T08:44:17;22.10;99.90
51567;DHT22;37657;53.182;5.638;2023-06-14T08:46:54;22.20;99.90
51567;DHT22;37657;53.182;5.638;2023-06-14T08:49:25;22.40;99.60
51567;DHT22;37657;53.182;5.638;2023-06-14T08:51:59;22.60;99.80
51567;DHT22;37657;53.182;5.638;2023-06-14T08:54:29;22.60;99.40
51567;DHT22;37657;53.182;5.638;2023-06-14T08:57:02;22.60;99.30
51567;DHT22;37657;53.182;5.638;2023-06-14T08:59:29;22.60;99.50
51567;DHT22;37657;53.182;5.638;2023-06-14T09:01:59;22.70;99.30
51567;DHT22;37657;53.182;5.638;2023-06-14T09:04:25;22.60;99.10
51567;DHT22;37657;53.182;5.638;2023-06-14T09:06:57;22.80;98.80
51567;DHT22;37657;53.182;5.638;2023-06-14T09:09:25;22.90;98.90
51567;DHT22;37657;53.182;5.638;2023-06-14T09:11:51;23.00;98.60
51567;DHT22;37657;53.182;5.638;2023-06-14T09:14:21;23.10;98.00
51567;DHT22;37657;53.182;5.638;2023-06-14T09:16:47;23.10;98.20
51567;DHT22;37657;53.182;5.638;2023-06-14T09:19:25;23.20;97.80
51567;DHT22;37657;53.182;5.638;2023-06-14T09:21:52;23.20;97.80
51567;DHT22;37657;53.182;5.638;2023-06-14T09:24:18;23.40;98.10
51567;DHT22;37657;53.182;5.638;2023-06-14T09:26:47;23.40;98.00
51567;DHT22;37657;53.182;5.638;2023-06-14T09:29:12;23.60;97.90
51567;DHT22;37657;53.182;5.638;2023-06-14T09:31:38;23.60;97.00
51567;DHT22;37657;53.182;5.638;2023-06-14T09:34:03;23.60;96.80
51567;DHT22;37657;53.182;5.638;2023-06-14T09:36:31;23.60;96.50
51567;DHT22;37657;53.182;5.638;2023-06-14T09:38:58;23.60;96.70
51567;DHT22;37657;53.182;5.638;2023-06-14T09:41:38;23.70;96.70
51567;DHT22;37657;53.182;5.638;2023-06-14T09:44:07;23.80;96.70
51567;DHT22;37657;53.182;5.638;2023-06-14T09:46:33;23.80;96.20
51567;DHT22;37657;53.182;5.638;2023-06-14T09:49:00;23.80;95.60
51567;DHT22;37657;53.182;5.638;2023-06-14T09:51:26;23.90;95.90
51567;DHT22;37657;53.182;5.638;2023-06-14T09:53:53;23.90;95.30
51567;DHT22;37657;53.182;5.638;2023-06-14T09:56:31;23.90;95.20
51567;DHT22;37657;53.182;5.638;2023-06-14T09:58:58;24.00;94.70
51567;DHT22;37657;53.182;5.638;2023-06-14T10:01:24;24.10;94.70
51567;DHT22;37657;53.182;5.638;2023-06-14T10:03:55;24.00;94.80
51567;DHT22;37657;53.182;5.638;2023-06-14T10:06:26;24.20;95.00
51567;DHT22;37657;53.182;5.638;2023-06-14T10:08:56;24.30;94.40
51567;DHT22;37657;53.182;5.638;2023-06-14T10:11:23;24.40;94.40
51567;DHT22;37657;53.182;5.638;2023-06-14T10:13:49;24.40;94.70
51567;DHT22;37657;53.182;5.638;2023-06-14T10:16:30;24.50;93.90
51567;DHT22;37657;53.182;5.638;2023-06-14T10:19:07;24.60;93.20
51567;DHT22;37657;53.182;5.638;2023-06-14T10:21:55;24.60;93.20
51567;DHT22;37657;53.182;5.638;2023-06-14T10:24:30;24.50;93.00
51567;DHT22;37657;53.182;5.638;2023-06-14T10:26:58;24.60;92.90
51567;DHT22;37657;53.182;5.638;2023-06-14T10:29:29;24.70;92.50
51567;DHT22;37657;53.182;5.638;2023-06-14T10:31:59;24.80;91.80
51567;DHT22;37657;53.182;5.638;2023-06-14T10:34:29;24.70;91.30
51567;DHT22;37657;53.182;5.638;2023-06-14T10:37:06;24.60;91.30
51567;DHT22;37657;53.182;5.638;2023-06-14T10:39:40;24.60;90.70
51567;DHT22;37657;53.182;5.638;2023-06-14T10:42:09;24.70;90.80
51567;DHT22;37657;53.182;5.638;2023-06-14T10:44:51;24.60;91.10
51567;DHT22;37657;53.182;5.638;2023-06-14T10:47:32;24.60;90.90
51567;DHT22;37657;53.182;5.638;2023-06-14T10:52:38;24.60;91.60
51567;DHT22;37657;53.182;5.638;2023-06-14T10:55:14;24.70;91.40
51567;DHT22;37657;53.182;5.638;2023-06-14T10:57:48;24.80;90.40
51567;DHT22;37657;53.182;5.638;2023-06-14T11:00:28;24.80;91.00
51567;DHT22;37657;53.182;5.638;2023-06-14T11:11:17;25.00;90.70
51567;DHT22;37657;53.182;5.638;2023-06-14T11:13:45;25.00;91.40
51567;DHT22;37657;53.182;5.638;2023-06-14T11:16:15;25.00;91.40
51567;DHT22;37657;53.182;5.638;2023-06-14T11:18:42;25.10;91.20
51567;DHT22;37657;53.182;5.638;2023-06-14T11:21:07;25.10;91.50
51567;DHT22;37657;53.182;5.638;2023-06-14T11:23:34;25.20;91.20
51567;DHT22;37657;53.182;5.638;2023-06-14T11:26:00;25.20;91.20
51567;DHT22;37657;53.182;5.638;2023-06-14T11:28:36;25.20;90.60
51567;DHT22;37657;53.182;5.638;2023-06-14T11:31:03;25.10;90.60
51567;DHT22;37657;53.182;5.638;2023-06-14T11:33:29;25.10;90.00
51567;DHT22;37657;53.182;5.638;2023-06-14T11:35:54;25.00;90.00
51567;DHT22;37657;53.182;5.638;2023-06-14T11:38:20;25.00;90.40
51567;DHT22;37657;53.182;5.638;2023-06-14T11:40:46;25.00;90.80
51567;DHT22;37657;53.182;5.638;2023-06-14T11:43:11;25.10;90.70
51567;DHT22;37657;53.182;5.638;2023-06-14T11:45:38;25.10;90.60
51567;DHT22;37657;53.182;5.638;2023-06-14T11:48:04;24.90;90.40
51567;DHT22;37657;53.182;5.638;2023-06-14T11:50:31;25.10;91.10
51567;DHT22;37657;53.182;5.638;2023-06-14T11:52:59;25.20;91.00
51567;DHT22;37657;53.182;5.638;2023-06-14T11:55:38;25.00;90.70
51567;DHT22;37657;53.182;5.638;2023-06-14T11:58:04;25.20;90.10
51567;DHT22;37657;53.182;5.638;2023-06-14T12:00:34;25.30;90.30
51567;DHT22;37657;53.182;5.638;2023-06-14T12:03:00;25.20;90.60
51567;DHT22;37657;53.182;5.638;2023-06-14T12:05:26;25.30;90.60
51567;DHT22;37657;53.182;5.638;2023-06-14T12:08:02;25.30;90.00
51567;DHT22;37657;53.182;5.638;2023-06-14T12:10:28;25.30;90.10
51567;DHT22;37657;53.182;5.638;2023-06-14T12:12:57;25.20;90.10
51567;DHT22;37657;53.182;5.638;2023-06-14T12:15:24;25.10;89.50
51567;DHT22;37657;53.182;5.638;2023-06-14T12:17:49;25.00;90.30
51567;DHT22;37657;53.182;5.638;2023-06-14T12:20:16;25.10;90.20
51567;DHT22;37657;53.182;5.638;2023-06-14T12:25:29;25.30;89.80
51567;DHT22;37657;53.182;5.638;2023-06-14T12:27:57;25.40;89.60
51567;DHT22;37657;53.182;5.638;2023-06-14T12:30:23;25.40;89.20
51567;DHT22;37657;53.182;5.638;2023-06-14T12:32:48;25.30;89.30
51567;DHT22;37657;53.182;5.638;2023-06-14T12:35:15;25.30;89.00
51567;DHT22;37657;53.182;5.638;2023-06-14T12:37:41;25.30;88.70
51567;DHT22;37657;53.182;5.638;2023-06-14T12:40:07;25.10;88.70
51567;DHT22;37657;53.182;5.638;2023-06-14T12:42:33;25.10;88.40
51567;DHT22;37657;53.182;5.638;2023-06-14T12:44:59;25.10;88.50
51567;DHT22;37657;53.182;5.638;2023-06-14T12:47:25;25.20;90.00
51567;DHT22;37657;53.182;5.638;2023-06-14T12:49:50;25.40;88.70
51567;DHT22;37657;53.182;5.638;2023-06-14T12:52:16;25.30;88.90
51567;DHT22;37657;53.182;5.638;2023-06-14T12:54:42;25.20;87.60
51567;DHT22;37657;53.182;5.638;2023-06-14T12:57:07;25.20;88.00
51567;DHT22;37657;53.182;5.638;2023-06-14T12:59:33;25.10;88.30
51567;DHT22;37657;53.182;5.638;2023-06-14T13:02:12;25.30;89.50
51567;DHT22;37657;53.182;5.638;2023-06-14T13:04:38;25.20;89.00
51567;DHT22;37657;53.182;5.638;2023-06-14T13:07:04;25.20;88.60
51567;DHT22;37657;53.182;5.638;2023-06-14T13:09:30;25.30;92.30
51567;DHT22;37657;53.182;5.638;2023-06-14T13:11:55;25.30;94.20
51567;DHT22;37657;53.182;5.638;2023-06-14T13:14:21;25.20;94.70
51567;DHT22;37657;53.182;5.638;2023-06-14T13:16:50;25.30;95.10
51567;DHT22;37657;53.182;5.638;2023-06-14T13:19:15;25.30;95.80
51567;DHT22;37657;53.182;5.638;2023-06-14T13:21:44;25.10;96.20
51567;DHT22;37657;53.182;5.638;2023-06-14T13:24:09;24.90;96.90
51567;DHT22;37657;53.182;5.638;2023-06-14T13:26:35;24.60;96.90
51567;DHT22;37657;53.182;5.638;2023-06-14T13:29:00;24.60;97.70
51567;DHT22;37657;53.182;5.638;2023-06-14T13:31:26;24.60;98.40
51567;DHT22;37657;53.182;5.638;2023-06-14T13:33:52;24.80;98.40
51567;DHT22;37657;53.182;5.638;2023-06-14T13:36:17;24.70;98.00
51567;DHT22;37657;53.182;5.638;2023-06-14T13:38:43;24.60;98.30
51567;DHT22;37657;53.182;5.638;2023-06-14T13:41:08;24.60;99.00
51567;DHT22;37657;53.182;5.638;2023-06-14T13:43:34;24.70;98.20
51567;DHT22;37657;53.182;5.638;2023-06-14T13:46:00;24.80;98.10
51567;DHT22;37657;53.182;5.638;2023-06-14T13:48:26;24.90;98.20
51567;DHT22;37657;53.182;5.638;2023-06-14T13:50:51;24.90;98.10
51567;DHT22;37657;53.182;5.638;2023-06-14T13:53:17;24.80;98.40
51567;DHT22;37657;53.182;5.638;2023-06-14T13:55:43;24.70;97.80
51567;DHT22;37657;53.182;5.638;2023-06-14T13:58:08;24.60;98.20
51567;DHT22;37657;53.182;5.638;2023-06-14T14:00:34;24.40;98.60
51567;DHT22;37657;53.182;5.638;2023-06-14T14:03:02;24.60;98.80
51567;DHT22;37657;53.182;5.638;2023-06-14T14:05:28;24.60;98.90
51567;DHT22;37657;53.182;5.638;2023-06-14T14:07:56;24.70;98.30
51567;DHT22;37657;53.182;5.638;2023-06-14T14:10:23;24.60;98.60
51567;DHT22;37657;53.182;5.638;2023-06-14T14:12:50;24.30;98.70
51567;DHT22;37657;53.182;5.638;2023-06-14T14:15:17;24.00;99.20
51567;DHT22;37657;53.182;5.638;2023-06-14T14:17:42;24.10;99.60
51567;DHT22;37657;53.182;5.638;2023-06-14T14:20:08;24.10;99.70
51567;DHT22;37657;53.182;5.638;2023-06-14T14:22:34;24.20;99.90
51567;DHT22;37657;53.182;5.638;2023-06-14T14:25:00;24.30;99.90
51567;DHT22;37657;53.182;5.638;2023-06-14T14:27:25;24.30;99.10
51567;DHT22;37657;53.182;5.638;2023-06-14T14:29:51;24.30;99.20
51567;DHT22;37657;53.182;5.638;2023-06-14T14:32:17;24.30;99.10
51567;DHT22;37657;53.182;5.638;2023-06-14T14:34:42;24.40;99.20
51567;DHT22;37657;53.182;5.638;2023-06-14T14:37:08;24.40;99.30
51567;DHT22;37657;53.182;5.638;2023-06-14T14:39:33;24.60;98.90
51567;DHT22;37657;53.182;5.638;2023-06-14T14:41:59;24.60;99.00
51567;DHT22;37657;53.182;5.638;2023-06-14T14:44:25;24.60;99.30
51567;DHT22;37657;53.182;5.638;2023-06-14T14:46:50;24.60;99.50
51567;DHT22;37657;53.182;5.638;2023-06-14T14:49:16;24.60;99.70
51567;DHT22;37657;53.182;5.638;2023-06-14T14:51:42;24.60;99.20
51567;DHT22;37657;53.182;5.638;2023-06-14T14:54:07;24.60;98.50
51567;DHT22;37657;53.182;5.638;2023-06-14T14:56:33;24.50;99.20
51567;DHT22;37657;53.182;5.638;2023-06-14T14:59:00;24.40;99.70
51567;DHT22;37657;53.182;5.638;2023-06-14T15:01:26;24.30;99.50
51567;DHT22;37657;53.182;5.638;2023-06-14T15:03:52;24.30;99.90
51567;DHT22;37657;53.182;5.638;2023-06-14T15:06:17;24.40;99.90
51567;DHT22;37657;53.182;5.638;2023-06-14T15:08:43;24.40;99.60
51567;DHT22;37657;53.182;5.638;2023-06-14T15:11:09;24.50;99.50
51567;DHT22;37657;53.182;5.638;2023-06-14T15:13:34;24.50;99.40
51567;DHT22;37657;53.182;5.638;2023-06-14T15:16:00;24.20;99.60
51567;DHT22;37657;53.182;5.638;2023-06-14T15:18:26;24.30;99.90
51567;DHT22;37657;53.182;5.638;2023-06-14T15:20:52;24.40;99.70
51567;DHT22;37657;53.182;5.638;2023-06-14T15:23:17;24.30;99.50
51567;DHT22;37657;53.182;5.638;2023-06-14T15:25:46;24.20;99.50
51567;DHT22;37657;53.182;5.638;2023-06-14T15:28:14;24.20;99.80
51567;DHT22;37657;53.182;5.638;2023-06-14T15:30:40;24.00;99.90
51567;DHT22;37657;53.182;5.638;2023-06-14T15:33:06;24.00;99.90
51567;DHT22;37657;53.182;5.638;2023-06-14T15:35:31;24.00;99.60
51567;DHT22;37657;53.182;5.638;2023-06-14T15:37:57;23.90;99.50
51567;DHT22;37657;53.182;5.638;2023-06-14T15:40:23;23.90;99.90
51567;DHT22;37657;53.182;5.638;2023-06-14T15:42:48;24.10;99.60
51567;DHT22;37657;53.182;5.638;2023-06-14T15:45:14;24.10;99.90
51567;DHT22;37657;53.182;5.638;2023-06-14T15:47:39;23.90;99.90
51567;DHT22;37657;53.182;5.638;2023-06-14T15:50:06;23.90;99.90